sensor_id;sensor_type;location;lat;lon;timestamp;pressure;altitude;pressure_sealevel;temperature;humidity
77216;BME280;66210;53.282;9.864;2024-03-02T00:00:31;99836.63;;;6.79;100.00
77216;BME280;66210;53.282;9.864;2024-03-02T00:02:58;99830.63;;;6.77;100.00
77216;BME280;66210;53.282;9.864;2024-03-02T00:05:25;99835.56;;;6.74;100.00
77216;BME280;66210;53.282;9.864;2024-03-02T00:07:58;99827.13;;;6.73;100.00
77216;BME280;66210;53.282;9.864;2024-03-02T00:10:37;99834.19;;;6.80;100.00
77216;BME280;66210;53.282;9.864;2024-03-02T00:13:07;99816.94;;;6.72;100.00
77216;BME280;66210;53.282;9.864;2024-03-02T00:15:47;99798.94;;;6.64;100.00
77216;BME280;66210;53.282;9.864;2024-03-02T00:18:18;99826.72;;;6.83;100.00
77216;BME280;66210;53.282;9.864;2024-03-02T00:20:46;99834.25;;;6.82;100.00
77216;BME280;66210;53.282;9.864;2024-03-02T00:23:16;99832.50;;;6.81;100.00
77216;BME280;66210;53.282;9.864;2024-03-02T00:25:53;99826.47;;;6.77;100.00
77216;BME280;66210;53.282;9.864;2024-03-02T00:28:29;99833.31;;;6.80;100.00
77216;BME280;66210;53.282;9.864;2024-03-02T00:31:09;99803.97;;;6.64;100.00
77216;BME280;66210;53.282;9.864;2024-03-02T00:33:46;99827.34;;;6.78;100.00
77216;BME280;66210;53.282;9.864;2024-03-02T00:36:21;99834.19;;;6.80;100.00
77216;BME280;66210;53.282;9.864;2024-03-02T00:38:50;99827.47;;;6.81;100.00
77216;BME280;66210;53.282;9.864;2024-03-02T00:41:29;99818.00;;;6.77;100.00
77216;BME280;66210;53.282;9.864;2024-03-02T00:44:09;99826.69;;;6.82;100.00
77216;BME280;66210;53.282;9.864;2024-03-02T00:46:39;99824.94;;;6.81;100.00
77216;BME280;66210;53.282;9.864;2024-03-02T00:49:18;99820.50;;;6.75;100.00
77216;BME280;66210;53.282;9.864;2024-03-02T00:51:50;99825.78;;;6.81;100.00
77216;BME280;66210;53.282;9.864;2024-03-02T00:54:25;99818.63;;;6.71;100.00
77216;BME280;66210;53.282;9.864;2024-03-02T00:56:53;99824.09;;;6.80;100.00
77216;BME280;66210;53.282;9.864;2024-03-02T00:59:23;99830.84;;;6.81;100.00
77216;BME280;66210;53.282;9.864;2024-03-02T01:01:49;99815.22;;;6.71;100.00
77216;BME280;66210;53.282;9.864;2024-03-02T01:04:16;99811.69;;;6.67;100.00
77216;BME280;66210;53.282;9.864;2024-03-02T01:06:43;99838.41;;;6.81;100.00
77216;BME280;66210;53.282;9.864;2024-03-02T01:09:10;99839.31;;;6.82;100.00
77216;BME280;66210;53.282;9.864;2024-03-02T01:11:39;99821.44;;;6.77;100.00
77216;BME280;66210;53.282;9.864;2024-03-02T01:14:06;99835.97;;;6.83;100.00
77216;BME280;66210;53.282;9.864;2024-03-02T01:16:32;99825.75;;;6.80;100.00
77216;BME280;66210;53.282;9.864;2024-03-02T01:18:59;99828.31;;;6.81;100.00
77216;BME280;66210;53.282;9.864;2024-03-02T01:21:26;99828.41;;;6.83;100.00
77216;BME280;66210;53.282;9.864;2024-03-02T01:23:53;99810.22;;;6.72;100.00
77216;BME280;66210;53.282;9.864;2024-03-02T01:26:20;99812.09;;;6.76;100.00
77216;BME280;66210;53.282;9.864;2024-03-02T01:28:47;99820.06;;;6.84;100.00
77216;BME280;66210;53.282;9.864;2024-03-02T01:31:14;99819.97;;;6.82;100.00
77216;BME280;66210;53.282;9.864;2024-03-02T01:33:40;99825.03;;;6.82;100.00
77216;BME280;66210;53.282;9.864;2024-03-02T01:36:07;99827.63;;;6.84;100.00
77216;BME280;66210;53.282;9.864;2024-03-02T01:38:35;99824.28;;;6.85;100.00
77216;BME280;66210;53.282;9.864;2024-03-02T01:41:02;99815.56;;;6.78;100.00
77216;BME280;66210;53.282;9.864;2024-03-02T01:43:29;99793.50;;;6.74;100.00
77216;BME280;66210;53.282;9.864;2024-03-02T01:45:55;99822.63;;;6.85;100.00
77216;BME280;66210;53.282;9.864;2024-03-02T01:48:23;99811.38;;;6.79;100.00
77216;BME280;66210;53.282;9.864;2024-03-02T01:50:50;99813.34;;;6.84;100.00
77216;BME280;66210;53.282;9.864;2024-03-02T01:53:17;99786.38;;;6.65;100.00
77216;BME280;66210;53.282;9.864;2024-03-02T01:55:43;99813.34;;;6.84;100.00
77216;BME280;66210;53.282;9.864;2024-03-02T01:58:10;99812.53;;;6.85;100.00
77216;BME280;66210;53.282;9.864;2024-03-02T02:00:37;99805.81;;;6.86;100.00
77216;BME280;66210;53.282;9.864;2024-03-02T02:03:04;99783.47;;;6.76;100.00
77216;BME280;66210;53.282;9.864;2024-03-02T02:05:31;99800.75;;;6.86;100.00
77216;BME280;66210;53.282;9.864;2024-03-02T02:07:58;99797.31;;;6.84;100.00
77216;BME280;66210;53.282;9.864;2024-03-02T02:10:25;99792.97;;;6.81;100.00
77216;BME280;66210;53.282;9.864;2024-03-02T02:12:52;99798.03;;;6.81;100.00
77216;BME280;66210;53.282;9.864;2024-03-02T02:17:50;99778.31;;;6.73;100.00
77216;BME280;66210;53.282;9.864;2024-03-02T02:20:17;99777.41;;;6.72;100.00
77216;BME280;66210;53.282;9.864;2024-03-02T02:23:04;99748.94;;;6.57;100.00
77216;BME280;66210;53.282;9.864;2024-03-02T02:25:32;99784.41;;;6.78;100.00
77216;BME280;66210;53.282;9.864;2024-03-02T02:27:59;99781.03;;;6.77;100.00
77216;BME280;66210;53.282;9.864;2024-03-02T02:30:27;99756.97;;;6.66;100.00
77216;BME280;66210;53.282;9.864;2024-03-02T02:32:55;99778.34;;;6.74;100.00
77216;BME280;66210;53.282;9.864;2024-03-02T02:35:22;99774.97;;;6.74;100.00
77216;BME280;66210;53.282;9.864;2024-03-02T02:37:52;99750.59;;;6.56;100.00
77216;BME280;66210;53.282;9.864;2024-03-02T02:40:20;99754.00;;;6.57;100.00
77216;BME280;66210;53.282;9.864;2024-03-02T02:42:48;99740.22;;;6.50;100.00
77216;BME280;66210;53.282;9.864;2024-03-02T02:45:15;99779.00;;;6.70;100.00
77216;BME280;66210;53.282;9.864;2024-03-02T02:47:44;99754.00;;;6.57;100.00
77216;BME280;66210;53.282;9.864;2024-03-02T02:50:11;99777.19;;;6.68;100.00
77216;BME280;66210;53.282;9.864;2024-03-02T02:52:40;99774.63;;;6.66;100.00
77216;BME280;66210;53.282;9.864;2024-03-02T02:55:09;99772.88;;;6.65;100.00
77216;BME280;66210;53.282;9.864;2024-03-02T02:57:38;99757.25;;;6.54;100.00
77216;BME280;66210;53.282;9.864;2024-03-02T03:02:37;99773.53;;;6.61;100.00
77216;BME280;66210;53.282;9.864;2024-03-02T03:05:12;99770.06;;;6.59;100.00
77216;BME280;66210;53.282;9.864;2024-03-02T03:07:40;99767.97;;;6.50;100.00
77216;BME280;66210;53.282;9.864;2024-03-02T03:10:07;99754.47;;;6.48;100.00
77216;BME280;66210;53.282;9.864;2024-03-02T03:12:35;99772.47;;;6.56;100.00
77216;BME280;66210;53.282;9.864;2024-03-02T03:15:03;99763.19;;;6.55;100.00
77216;BME280;66210;53.282;9.864;2024-03-02T03:17:31;99769.00;;;6.54;100.00
77216;BME280;66210;53.282;9.864;2024-03-02T03:19:58;99757.69;;;6.45;100.00
77216;BME280;66210;53.282;9.864;2024-03-02T03:22:25;99767.97;;;6.50;100.00
77216;BME280;66210;53.282;9.864;2024-03-02T03:24:52;99759.28;;;6.43;100.00
77216;BME280;66210;53.282;9.864;2024-03-02T03:27:19;99769.59;;;6.48;100.00
77216;BME280;66210;53.282;9.864;2024-03-02T03:29:46;99764.56;;;6.48;100.00
77216;BME280;66210;53.282;9.864;2024-03-02T03:32:13;99737.03;;;6.35;100.00
77216;BME280;66210;53.282;9.864;2024-03-02T03:34:40;99754.25;;;6.43;100.00
77216;BME280;66210;53.282;9.864;2024-03-02T03:37:07;99747.31;;;6.39;100.00
77216;BME280;66210;53.282;9.864;2024-03-02T03:39:34;99749.91;;;6.41;100.00
77216;BME280;66210;53.282;9.864;2024-03-02T03:42:03;99761.09;;;6.46;100.00
77216;BME280;66210;53.282;9.864;2024-03-02T03:44:30;99770.28;;;6.45;100.00
77216;BME280;66210;53.282;9.864;2024-03-02T03:46:57;99752.28;;;6.38;100.00
77216;BME280;66210;53.282;9.864;2024-03-02T03:49:23;99768.56;;;6.44;100.00
77216;BME280;66210;53.282;9.864;2024-03-02T03:51:50;99760.00;;;6.41;100.00
77216;BME280;66210;53.282;9.864;2024-03-02T03:54:17;99763.53;;;6.44;100.00
77216;BME280;66210;53.282;9.864;2024-03-02T03:56:44;99749.84;;;6.39;100.00
77216;BME280;66210;53.282;9.864;2024-03-02T03:59:11;99745.66;;;6.40;100.00
77216;BME280;66210;53.282;9.864;2024-03-02T04:01:37;99751.94;;;6.48;100.00
77216;BME280;66210;53.282;9.864;2024-03-02T04:04:04;99759.63;;;6.51;100.00
77216;BME280;66210;53.282;9.864;2024-03-02T04:06:31;99754.50;;;6.50;100.00
77216;BME280;66210;53.282;9.864;2024-03-02T04:08:58;99757.09;;;6.51;100.00
77216;BME280;66210;53.282;9.864;2024-03-02T04:11:25;99763.09;;;6.53;100.00
77216;BME280;66210;53.282;9.864;2024-03-02T04:13:52;99736.84;;;6.32;100.00
77216;BME280;66210;53.282;9.864;2024-03-02T04:16:22;99764.69;;;6.51;100.00
77216;BME280;66210;53.282;9.864;2024-03-02T04:18:49;99762.81;;;6.47;100.00
77216;BME280;66210;53.282;9.864;2024-03-02T04:21:16;99751.44;;;6.37;100.00
77216;BME280;66210;53.282;9.864;2024-03-02T04:23:43;99747.25;;;6.38;100.00
77216;BME280;66210;53.282;9.864;2024-03-02T04:26:09;99762.69;;;6.44;100.00
77216;BME280;66210;53.282;9.864;2024-03-02T04:28:36;99760.66;;;6.37;100.00
77216;BME280;66210;53.282;9.864;2024-03-02T04:31:03;99758.06;;;6.35;100.00
77216;BME280;66210;53.282;9.864;2024-03-02T04:33:30;99763.44;;;6.43;100.00
77216;BME280;66210;53.282;9.864;2024-03-02T04:35:57;99768.44;;;6.41;100.00
77216;BME280;66210;53.282;9.864;2024-03-02T04:38:24;99767.56;;;6.41;100.00
77216;BME280;66210;53.282;9.864;2024-03-02T04:40:51;99762.38;;;6.38;100.00
77216;BME280;66210;53.282;9.864;2024-03-02T04:43:17;99752.84;;;6.32;100.00
77216;BME280;66210;53.282;9.864;2024-03-02T04:45:48;99774.34;;;6.42;100.00
77216;BME280;66210;53.282;9.864;2024-03-02T04:48:15;99744.38;;;6.30;100.00
77216;BME280;66210;53.282;9.864;2024-03-02T04:50:42;99758.28;;;6.40;100.00
77216;BME280;66210;53.282;9.864;2024-03-02T04:53:09;99734.19;;;6.29;100.00
77216;BME280;66210;53.282;9.864;2024-03-02T04:55:35;99736.84;;;6.32;100.00
77216;BME280;66210;53.282;9.864;2024-03-02T04:58:08;99765.31;;;6.47;100.00
77216;BME280;66210;53.282;9.864;2024-03-02T05:00:35;99761.88;;;6.45;100.00
77216;BME280;66210;53.282;9.864;2024-03-02T05:03:02;99754.81;;;6.38;100.00
77216;BME280;66210;53.282;9.864;2024-03-02T05:05:29;99750.41;;;6.34;100.00
77216;BME280;66210;53.282;9.864;2024-03-02T05:07:56;99762.47;;;6.39;100.00
77216;BME280;66210;53.282;9.864;2024-03-02T05:10:22;99759.78;;;6.36;100.00
77216;BME280;66210;53.282;9.864;2024-03-02T05:12:50;99762.16;;;6.33;100.00
77216;BME280;66210;53.282;9.864;2024-03-02T05:15:24;99762.88;;;6.31;100.00
77216;BME280;66210;53.282;9.864;2024-03-02T05:17:51;99754.91;;;6.21;100.00
77216;BME280;66210;53.282;9.864;2024-03-02T05:20:18;99751.25;;;6.16;100.00
77216;BME280;66210;53.282;9.864;2024-03-02T05:22:45;99763.41;;;6.23;100.00
77216;BME280;66210;53.282;9.864;2024-03-02T05:25:12;99758.19;;;6.20;100.00
77216;BME280;66210;53.282;9.864;2024-03-02T05:27:39;99756.31;;;6.16;100.00
77216;BME280;66210;53.282;9.864;2024-03-02T05:30:06;99753.34;;;6.07;100.00
77216;BME280;66210;53.282;9.864;2024-03-02T05:32:34;99744.41;;;5.96;100.00
77216;BME280;66210;53.282;9.864;2024-03-02T05:35:01;99775.09;;;6.05;100.00
77216;BME280;66210;53.282;9.864;2024-03-02T05:37:29;99744.44;;;5.79;100.00
77216;BME280;66210;53.282;9.864;2024-03-02T05:39:56;99758.19;;;5.86;100.00
77216;BME280;66210;53.282;9.864;2024-03-02T05:42:23;99770.88;;;5.88;100.00
77216;BME280;66210;53.282;9.864;2024-03-02T05:44:50;99760.50;;;5.81;100.00
77216;BME280;66210;53.282;9.864;2024-03-02T05:47:17;99770.66;;;5.83;100.00
77216;BME280;66210;53.282;9.864;2024-03-02T05:49:43;99766.75;;;5.72;100.00
77216;BME280;66210;53.282;9.864;2024-03-02T05:52:10;99776.84;;;5.72;100.00
77216;BME280;66210;53.282;9.864;2024-03-02T05:54:38;99773.91;;;5.64;100.00
77216;BME280;66210;53.282;9.864;2024-03-02T05:57:05;99770.22;;;5.57;100.00
77216;BME280;66210;53.282;9.864;2024-03-02T05:59:59;99747.41;;;5.38;100.00
77216;BME280;66210;53.282;9.864;2024-03-02T06:02:25;99760.16;;;5.41;100.00
77216;BME280;66210;53.282;9.864;2024-03-02T06:04:54;99742.69;;;5.28;100.00
77216;BME280;66210;53.282;9.864;2024-03-02T06:07:21;99755.44;;;5.31;100.00
77216;BME280;66210;53.282;9.864;2024-03-02T06:09:48;99767.03;;;5.27;100.00
77216;BME280;66210;53.282;9.864;2024-03-02T06:12:17;99756.22;;;5.13;100.00
77216;BME280;66210;53.282;9.864;2024-03-02T06:14:44;99769.00;;;5.16;100.00
77216;BME280;66210;53.282;9.864;2024-03-02T06:17:10;99764.66;;;5.14;100.00
77216;BME280;66210;53.282;9.864;2024-03-02T06:19:37;99768.66;;;5.10;100.00
77216;BME280;66210;53.282;9.864;2024-03-02T06:22:04;99721.75;;;4.79;100.00
77216;BME280;66210;53.282;9.864;2024-03-02T06:24:32;99739.06;;;4.90;100.00
77216;BME280;66210;53.282;9.864;2024-03-02T06:26:59;99760.72;;;5.03;100.00
77216;BME280;66210;53.282;9.864;2024-03-02T06:29:25;99754.66;;;4.99;100.00
77216;BME280;66210;53.282;9.864;2024-03-02T06:31:52;99754.50;;;4.96;100.00
77216;BME280;66210;53.282;9.864;2024-03-02T06:34:21;99770.47;;;4.96;100.00
77216;BME280;66210;53.282;9.864;2024-03-02T06:36:47;99775.50;;;4.96;100.00
77216;BME280;66210;53.282;9.864;2024-03-02T06:39:14;99769.97;;;4.87;100.00
77216;BME280;66210;53.282;9.864;2024-03-02T06:41:41;99778.88;;;4.97;100.00
77216;BME280;66210;53.282;9.864;2024-03-02T06:44:09;99783.19;;;4.99;100.00
77216;BME280;66210;53.282;9.864;2024-03-02T06:46:36;99719.13;;;4.62;100.00
77216;BME280;66210;53.282;9.864;2024-03-02T06:49:02;99799.44;;;5.05;100.00
77216;BME280;66210;53.282;9.864;2024-03-02T06:51:30;99788.22;;;4.99;100.00
77216;BME280;66210;53.282;9.864;2024-03-02T06:53:57;99803.81;;;5.09;100.00
77216;BME280;66210;53.282;9.864;2024-03-02T06:56:24;99814.22;;;5.15;100.00
77216;BME280;66210;53.282;9.864;2024-03-02T06:58:51;99794.69;;;5.11;100.00
77216;BME280;66210;53.282;9.864;2024-03-02T07:01:18;99811.31;;;5.24;100.00
77216;BME280;66210;53.282;9.864;2024-03-02T07:03:50;99807.31;;;5.27;100.00
77216;BME280;66210;53.282;9.864;2024-03-02T07:06:17;99793.53;;;5.20;100.00
77216;BME280;66210;53.282;9.864;2024-03-02T07:08:44;99808.50;;;5.34;100.00
77216;BME280;66210;53.282;9.864;2024-03-02T07:11:11;99813.84;;;5.40;100.00
77216;BME280;66210;53.282;9.864;2024-03-02T07:13:38;99818.34;;;5.46;100.00
77216;BME280;66210;53.282;9.864;2024-03-02T07:16:05;99807.22;;;5.42;100.00
77216;BME280;66210;53.282;9.864;2024-03-02T07:18:54;99792.19;;;5.44;100.00
77216;BME280;66210;53.282;9.864;2024-03-02T07:21:23;99786.06;;;5.38;100.00
77216;BME280;66210;53.282;9.864;2024-03-02T07:23:50;99807.94;;;5.56;100.00
77216;BME280;66210;53.282;9.864;2024-03-02T07:26:17;99817.31;;;5.58;100.00
77216;BME280;66210;53.282;9.864;2024-03-02T07:28:49;99807.31;;;5.60;100.00
77216;BME280;66210;53.282;9.864;2024-03-02T07:31:17;99803.84;;;5.58;100.00
77216;BME280;66210;53.282;9.864;2024-03-02T07:33:44;99808.34;;;5.63;100.00
77216;BME280;66210;53.282;9.864;2024-03-02T07:36:13;99813.13;;;5.75;100.00
77216;BME280;66210;53.282;9.864;2024-03-02T07:38:39;99784.56;;;5.58;100.00
77216;BME280;66210;53.282;9.864;2024-03-02T07:41:08;99808.78;;;5.73;100.00
77216;BME280;66210;53.282;9.864;2024-03-02T07:43:35;99829.72;;;5.88;100.00
77216;BME280;66210;53.282;9.864;2024-03-02T07:46:02;99812.41;;;5.78;100.00
77216;BME280;66210;53.282;9.864;2024-03-02T07:48:30;99837.69;;;5.96;100.00
77216;BME280;66210;53.282;9.864;2024-03-02T07:50:57;99823.25;;;5.93;100.00
77216;BME280;66210;53.282;9.864;2024-03-02T07:53:24;99833.47;;;5.95;100.00
77216;BME280;66210;53.282;9.864;2024-03-02T07:55:51;99846.81;;;6.10;100.00
77216;BME280;66210;53.282;9.864;2024-03-02T07:58:18;99852.88;;;6.14;100.00
77216;BME280;66210;53.282;9.864;2024-03-02T08:00:46;99850.50;;;6.17;100.00
77216;BME280;66210;53.282;9.864;2024-03-02T08:03:13;99854.91;;;6.21;100.00
77216;BME280;66210;53.282;9.864;2024-03-02T08:05:41;99854.03;;;6.20;100.00
77216;BME280;66210;53.282;9.864;2024-03-02T08:08:08;99845.53;;;6.18;100.00
77216;BME280;66210;53.282;9.864;2024-03-02T08:10:35;99843.22;;;6.23;100.00
77216;BME280;66210;53.282;9.864;2024-03-02T08:13:02;99842.53;;;6.26;100.00
77216;BME280;66210;53.282;9.864;2024-03-02T08:15:29;99853.28;;;6.39;100.00
77216;BME280;66210;53.282;9.864;2024-03-02T08:17:56;99820.53;;;6.23;100.00
77216;BME280;66210;53.282;9.864;2024-03-02T08:20:23;99822.72;;;6.33;100.00
77216;BME280;66210;53.282;9.864;2024-03-02T08:22:50;99858.41;;;6.59;100.00
77216;BME280;66210;53.282;9.864;2024-03-02T08:25:17;99843.94;;;6.55;100.00
77216;BME280;66210;53.282;9.864;2024-03-02T08:27:44;99821.06;;;6.52;100.00
77216;BME280;66210;53.282;9.864;2024-03-02T08:30:11;99866.41;;;6.86;100.00
77216;BME280;66210;53.282;9.864;2024-03-02T08:32:38;99847.22;;;6.90;100.00
77216;BME280;66210;53.282;9.864;2024-03-02T08:35:06;99857.22;;;7.06;100.00
77216;BME280;66210;53.282;9.864;2024-03-02T08:37:33;99854.41;;;7.18;100.00
77216;BME280;66210;53.282;9.864;2024-03-02T08:40:00;99839.31;;;7.19;100.00
77216;BME280;66210;53.282;9.864;2024-03-02T08:42:27;99859.88;;;7.46;100.00
77216;BME280;66210;53.282;9.864;2024-03-02T08:44:53;99857.91;;;7.59;100.00
77216;BME280;66210;53.282;9.864;2024-03-02T08:47:20;99848.81;;;7.62;100.00
77216;BME280;66210;53.282;9.864;2024-03-02T08:49:47;99866.56;;;7.83;100.00
77216;BME280;66210;53.282;9.864;2024-03-02T08:52:14;99859.34;;;7.93;100.00
77216;BME280;66210;53.282;9.864;2024-03-02T08:54:40;99863.88;;;8.00;100.00
77216;BME280;66210;53.282;9.864;2024-03-02T08:57:07;99868.53;;;8.10;98.84
77216;BME280;66210;53.282;9.864;2024-03-02T08:59:34;99867.22;;;8.20;99.00
77216;BME280;66210;53.282;9.864;2024-03-02T09:02:01;99866.00;;;8.31;98.65
77216;BME280;66210;53.282;9.864;2024-03-02T09:04:28;99868.78;;;8.37;98.11
77216;BME280;66210;53.282;9.864;2024-03-02T09:06:59;99870.97;;;8.49;98.17
77216;BME280;66210;53.282;9.864;2024-03-02T09:09:26;99877.34;;;8.60;97.63
77216;BME280;66210;53.282;9.864;2024-03-02T09:11:53;99877.84;;;8.72;94.10
77216;BME280;66210;53.282;9.864;2024-03-02T09:14:21;99847.25;;;8.68;94.73
77216;BME280;66210;53.282;9.864;2024-03-02T09:16:48;99865.19;;;8.95;94.63
77216;BME280;66210;53.282;9.864;2024-03-02T09:19:15;99872.22;;;9.02;89.02
77216;BME280;66210;53.282;9.864;2024-03-02T09:21:43;99839.97;;;8.98;90.59
77216;BME280;66210;53.282;9.864;2024-03-02T09:24:10;99868.59;;;9.18;90.88
77216;BME280;66210;53.282;9.864;2024-03-02T09:26:39;99870.59;;;9.27;90.21
77216;BME280;66210;53.282;9.864;2024-03-02T09:29:06;99869.00;;;9.29;91.34
77216;BME280;66210;53.282;9.864;2024-03-02T09:31:33;99863.28;;;9.34;89.76
77216;BME280;66210;53.282;9.864;2024-03-02T09:34:00;99871.34;;;9.47;89.65
77216;BME280;66210;53.282;9.864;2024-03-02T09:36:26;99864.75;;;9.52;88.12
77216;BME280;66210;53.282;9.864;2024-03-02T09:38:54;99854.72;;;9.55;87.80
77216;BME280;66210;53.282;9.864;2024-03-02T09:41:20;99877.47;;;9.76;87.98
77216;BME280;66210;53.282;9.864;2024-03-02T09:43:47;99873.47;;;9.83;88.07
77216;BME280;66210;53.282;9.864;2024-03-02T09:46:15;99870.53;;;9.96;88.34
77216;BME280;66210;53.282;9.864;2024-03-02T09:48:44;99873.53;;;10.10;88.26
77216;BME280;66210;53.282;9.864;2024-03-02T09:51:11;99871.31;;;10.19;87.37
77216;BME280;66210;53.282;9.864;2024-03-02T09:53:38;99862.94;;;10.22;84.50
77216;BME280;66210;53.282;9.864;2024-03-02T09:56:05;99869.25;;;10.33;84.87
77216;BME280;66210;53.282;9.864;2024-03-02T09:58:32;99845.31;;;10.26;82.62
77216;BME280;66210;53.282;9.864;2024-03-02T10:00:59;99847.16;;;10.30;83.53
77216;BME280;66210;53.282;9.864;2024-03-02T10:03:26;99863.88;;;10.49;83.72
77216;BME280;66210;53.282;9.864;2024-03-02T10:05:54;99858.88;;;10.52;83.52
77216;BME280;66210;53.282;9.864;2024-03-02T10:08:20;99870.34;;;10.67;83.80
77216;BME280;66210;53.282;9.864;2024-03-02T10:10:47;99857.50;;;10.62;82.45
77216;BME280;66210;53.282;9.864;2024-03-02T10:13:14;99865.66;;;10.79;82.66
77216;BME280;66210;53.282;9.864;2024-03-02T10:15:41;99857.97;;;10.77;82.13
77216;BME280;66210;53.282;9.864;2024-03-02T10:18:09;99865.69;;;10.80;79.73
77216;BME280;66210;53.282;9.864;2024-03-02T10:20:40;99863.34;;;10.87;79.95
77216;BME280;66210;53.282;9.864;2024-03-02T10:23:12;99879.69;;;10.95;80.16
77216;BME280;66210;53.282;9.864;2024-03-02T10:25:39;99882.44;;;11.01;79.73
77216;BME280;66210;53.282;9.864;2024-03-02T10:28:20;99864.72;;;11.04;79.51
77216;BME280;66210;53.282;9.864;2024-03-02T10:30:48;99880.31;;;11.16;79.62
77216;BME280;66210;53.282;9.864;2024-03-02T10:33:17;99880.78;;;11.32;79.12
77216;BME280;66210;53.282;9.864;2024-03-02T10:35:44;99874.31;;;11.43;78.25
77216;BME280;66210;53.282;9.864;2024-03-02T10:38:11;99872.81;;;11.50;77.51
77216;BME280;66210;53.282;9.864;2024-03-02T10:40:38;99883.22;;;11.57;77.02
77216;BME280;66210;53.282;9.864;2024-03-02T10:43:06;99885.09;;;11.64;75.86
77216;BME280;66210;53.282;9.864;2024-03-02T10:45:34;99886.75;;;11.62;75.37
77216;BME280;66210;53.282;9.864;2024-03-02T10:48:02;99886.75;;;11.62;73.71
77216;BME280;66210;53.282;9.864;2024-03-02T10:50:29;99882.50;;;11.61;74.27
77216;BME280;66210;53.282;9.864;2024-03-02T10:52:57;99896.09;;;11.63;75.01
77216;BME280;66210;53.282;9.864;2024-03-02T10:55:23;99898.91;;;11.73;75.60
77216;BME280;66210;53.282;9.864;2024-03-02T10:57:53;99894.06;;;11.82;75.39
77216;BME280;66210;53.282;9.864;2024-03-02T11:00:21;99893.44;;;11.89;74.57
77216;BME280;66210;53.282;9.864;2024-03-02T11:03:04;99898.00;;;12.01;74.37
77216;BME280;66210;53.282;9.864;2024-03-02T11:05:43;99890.66;;;12.12;74.22
77216;BME280;66210;53.282;9.864;2024-03-02T11:08:18;99881.44;;;12.17;74.73
77216;BME280;66210;53.282;9.864;2024-03-02T11:10:51;99890.06;;;12.22;74.59
77216;BME280;66210;53.282;9.864;2024-03-02T11:13:27;99903.06;;;12.33;74.33
77216;BME280;66210;53.282;9.864;2024-03-02T11:15:59;99899.03;;;12.41;73.53
77216;BME280;66210;53.282;9.864;2024-03-02T11:18:31;99887.78;;;12.33;72.59
77216;BME280;66210;53.282;9.864;2024-03-02T11:20:59;99892.06;;;12.34;72.86
77216;BME280;66210;53.282;9.864;2024-03-02T11:23:35;99896.53;;;12.44;71.82
77216;BME280;66210;53.282;9.864;2024-03-02T11:26:17;99890.31;;;12.33;70.70
77216;BME280;66210;53.282;9.864;2024-03-02T11:28:44;99897.16;;;12.34;71.80
77216;BME280;66210;53.282;9.864;2024-03-02T11:31:12;99902.16;;;12.31;71.31
77216;BME280;66210;53.282;9.864;2024-03-02T11:33:39;99906.22;;;12.22;70.39
77216;BME280;66210;53.282;9.864;2024-03-02T11:36:09;99899.09;;;12.11;69.39
77216;BME280;66210;53.282;9.864;2024-03-02T11:38:38;99898.22;;;12.09;71.27
77216;BME280;66210;53.282;9.864;2024-03-02T11:41:06;99897.44;;;12.11;72.01
77216;BME280;66210;53.282;9.864;2024-03-02T11:43:38;99899.25;;;12.15;71.69
77216;BME280;66210;53.282;9.864;2024-03-02T11:46:08;99894.16;;;12.15;70.55
77216;BME280;66210;53.282;9.864;2024-03-02T11:48:36;99898.44;;;12.18;71.29
77216;BME280;66210;53.282;9.864;2024-03-02T11:51:04;99894.91;;;12.13;71.19
77216;BME280;66210;53.282;9.864;2024-03-02T11:53:31;99902.75;;;12.20;70.01
77216;BME280;66210;53.282;9.864;2024-03-02T11:56:02;99904.34;;;12.17;70.24
77216;BME280;66210;53.282;9.864;2024-03-02T11:58:29;99906.91;;;12.17;69.48
77216;BME280;66210;53.282;9.864;2024-03-02T12:00:56;99895.56;;;12.05;69.13
77216;BME280;66210;53.282;9.864;2024-03-02T12:03:25;99901.72;;;12.14;69.43
77216;BME280;66210;53.282;9.864;2024-03-02T12:05:53;99901.72;;;12.14;69.56
77216;BME280;66210;53.282;9.864;2024-03-02T12:08:21;99892.41;;;12.14;69.25
77216;BME280;66210;53.282;9.864;2024-03-02T12:10:58;99899.38;;;12.21;70.49
77216;BME280;66210;53.282;9.864;2024-03-02T12:13:26;99877.25;;;12.19;69.42
77216;BME280;66210;53.282;9.864;2024-03-02T12:15:54;99874.91;;;12.28;70.65
77216;BME280;66210;53.282;9.864;2024-03-02T12:18:22;99879.44;;;12.38;70.72
77216;BME280;66210;53.282;9.864;2024-03-02T12:20:50;99883.78;;;12.42;69.20
77216;BME280;66210;53.282;9.864;2024-03-02T12:23:19;99878.47;;;12.33;69.25
77216;BME280;66210;53.282;9.864;2024-03-02T12:25:46;99882.78;;;12.36;69.95
77216;BME280;66210;53.282;9.864;2024-03-02T12:28:13;99880.19;;;12.34;69.56
77216;BME280;66210;53.282;9.864;2024-03-02T12:30:40;99872.31;;;12.25;70.39
77216;BME280;66210;53.282;9.864;2024-03-02T12:33:07;99881.94;;;12.37;69.25
77216;BME280;66210;53.282;9.864;2024-03-02T12:35:35;99863.66;;;12.18;67.42
77216;BME280;66210;53.282;9.864;2024-03-02T12:38:02;99886.84;;;12.29;68.86
77216;BME280;66210;53.282;9.864;2024-03-02T12:40:30;99878.13;;;12.21;68.58
77216;BME280;66210;53.282;9.864;2024-03-02T12:42:57;99876.56;;;12.26;67.42
77216;BME280;66210;53.282;9.864;2024-03-02T12:45:24;99873.84;;;12.18;68.07
77216;BME280;66210;53.282;9.864;2024-03-02T12:47:52;99880.69;;;12.21;68.55
77216;BME280;66210;53.282;9.864;2024-03-02T12:50:20;99873.88;;;12.20;68.80
77216;BME280;66210;53.282;9.864;2024-03-02T12:52:54;99873.88;;;12.20;69.32
77216;BME280;66210;53.282;9.864;2024-03-02T12:55:22;99870.44;;;12.19;68.73
77216;BME280;66210;53.282;9.864;2024-03-02T12:57:52;99858.44;;;12.14;69.08
77216;BME280;66210;53.282;9.864;2024-03-02T13:00:21;99867.06;;;12.19;67.91
77216;BME280;66210;53.282;9.864;2024-03-02T13:02:48;99865.22;;;12.13;68.28
77216;BME280;66210;53.282;9.864;2024-03-02T13:05:17;99865.97;;;12.11;67.90
77216;BME280;66210;53.282;9.864;2024-03-02T13:07:47;99865.28;;;12.16;67.64
77216;BME280;66210;53.282;9.864;2024-03-02T13:10:14;99859.22;;;12.11;68.84